HESH/SSH METAR and TAF weather

Enter ICAO airport designator
Station Type Date Time Source
HESH METAR 2022/05/26 05:00 UTC NOAA

HESH 260500Z 01018KT CAVOK 28/14 Q1010 NOSIG


Station Type Date Time Source
HESH Decoded METAR 2022/05/26 05:00 UTC NOAA

Sharm El Sheikhintl, Egypt (HESH) 27-58N 034-23E
May 26, 2022 - 01:00 AM EDT / 2022.05.26 0500 UTC
Wind: from the N (010 degrees) at 21 MPH (18 KT):0
Visibility: greater than 7 mile(s):0
Temperature: 82 F (28 C)
Dew Point: 57 F (14 C)
Relative Humidity: 42%
Pressure (altimeter): 29.83 in. Hg (1010 hPa)
ob: HESH 260500Z 01018KT CAVOK 28/14 Q1010 NOSIG
cycle: 5

Station Type Date Time Source
HESH TAF 2022/05/26 06:12 UTC NOAA

TAF TAF HESH 260500Z 2606/2712 36016KT CAVOK

Example: see airport list